sensor_id;sensor_type;location;lat;lon;timestamp;pressure;altitude;pressure_sealevel;temperature;humidity
43125;BME280;49182;50.788;7.318;2024-02-21T00:00:52;101646.28;;;8.32;86.21
43125;BME280;49182;50.788;7.318;2024-02-21T00:05:53;101688.09;;;8.65;86.99
43125;BME280;49182;50.788;7.318;2024-02-21T00:10:56;101689.78;;;8.66;87.21
43125;BME280;49182;50.788;7.318;2024-02-21T00:16:00;101659.34;;;8.62;86.63
43125;BME280;49182;50.788;7.318;2024-02-21T00:21:02;101681.50;;;8.72;86.48
43125;BME280;49182;50.788;7.318;2024-02-21T00:26:05;101676.22;;;8.72;86.74
43125;BME280;49182;50.788;7.318;2024-02-21T00:31:06;101672.34;;;8.78;87.06
43125;BME280;49182;50.788;7.318;2024-02-21T00:36:08;101664.94;;;8.70;86.35
43125;BME280;49182;50.788;7.318;2024-02-21T00:41:11;101653.59;;;8.70;86.24
43125;BME280;49182;50.788;7.318;2024-02-21T00:46:13;101650.75;;;8.59;86.29
43125;BME280;49182;50.788;7.318;2024-02-21T00:51:15;101644.25;;;8.64;87.20
43125;BME280;49182;50.788;7.318;2024-02-21T00:56:18;101636.28;;;8.66;86.05
43125;BME280;49182;50.788;7.318;2024-02-21T01:01:23;101643.25;;;8.67;87.05
43125;BME280;49182;50.788;7.318;2024-02-21T01:06:25;101487.34;;;7.65;86.63
43125;BME280;49182;50.788;7.318;2024-02-21T01:11:28;101636.94;;;8.69;87.36
43125;BME280;49182;50.788;7.318;2024-02-21T01:16:30;101631.69;;;8.69;87.82
43125;BME280;49182;50.788;7.318;2024-02-21T01:21:32;101620.03;;;8.59;88.48
43125;BME280;49182;50.788;7.318;2024-02-21T01:26:35;101622.19;;;8.67;88.96
43125;BME280;49182;50.788;7.318;2024-02-21T01:31:37;101608.16;;;8.66;90.19
43125;BME280;49182;50.788;7.318;2024-02-21T01:36:38;101593.97;;;8.69;92.80
43125;BME280;49182;50.788;7.318;2024-02-21T01:41:41;101596.16;;;8.62;93.55
43125;BME280;49182;50.788;7.318;2024-02-21T01:46:43;101594.63;;;8.58;94.13
43125;BME280;49182;50.788;7.318;2024-02-21T01:51:45;101573.19;;;8.64;93.66
43125;BME280;49182;50.788;7.318;2024-02-21T01:56:48;101570.47;;;8.66;93.08
43125;BME280;49182;50.788;7.318;2024-02-21T02:01:51;101575.41;;;8.58;93.99
43125;BME280;49182;50.788;7.318;2024-02-21T02:06:54;101546.84;;;8.37;94.44
43125;BME280;49182;50.788;7.318;2024-02-21T02:11:57;101570.63;;;8.50;93.22
43125;BME280;49182;50.788;7.318;2024-02-21T02:16:59;101556.06;;;8.44;92.47
43125;BME280;49182;50.788;7.318;2024-02-21T02:22:08;101513.50;;;8.38;93.10
43125;BME280;49182;50.788;7.318;2024-02-21T02:27:12;101541.66;;;8.50;95.18
43125;BME280;49182;50.788;7.318;2024-02-21T02:32:14;101525.78;;;8.51;95.04
43125;BME280;49182;50.788;7.318;2024-02-21T02:37:15;101487.09;;;8.25;94.33
43125;BME280;49182;50.788;7.318;2024-02-21T02:42:19;101502.28;;;8.48;94.63
43125;BME280;49182;50.788;7.318;2024-02-21T02:47:20;101495.22;;;8.49;96.15
43125;BME280;49182;50.788;7.318;2024-02-21T02:52:22;101492.16;;;8.42;96.34
43125;BME280;49182;50.788;7.318;2024-02-21T02:57:25;101481.81;;;8.39;96.58
43125;BME280;49182;50.788;7.318;2024-02-21T03:02:27;101487.47;;;8.33;97.43
43125;BME280;49182;50.788;7.318;2024-02-21T03:07:29;101485.31;;;8.26;94.03
43125;BME280;49182;50.788;7.318;2024-02-21T03:12:32;101474.88;;;8.24;94.14
43125;BME280;49182;50.788;7.318;2024-02-21T03:17:34;101458.03;;;8.00;93.25
43125;BME280;49182;50.788;7.318;2024-02-21T03:22:36;101476.56;;;8.25;92.66
43125;BME280;49182;50.788;7.318;2024-02-21T03:27:39;101469.03;;;8.33;92.56
43125;BME280;49182;50.788;7.318;2024-02-21T03:32:41;101463.69;;;8.35;92.91
43125;BME280;49182;50.788;7.318;2024-02-21T03:37:44;101444.34;;;8.36;92.27
43125;BME280;49182;50.788;7.318;2024-02-21T03:42:47;101431.28;;;8.34;92.97
43125;BME280;49182;50.788;7.318;2024-02-21T03:47:49;101389.16;;;8.07;93.73
43125;BME280;49182;50.788;7.318;2024-02-21T03:52:51;101450.03;;;8.42;94.10
43125;BME280;49182;50.788;7.318;2024-02-21T03:57:54;101418.88;;;8.36;95.55
43125;BME280;49182;50.788;7.318;2024-02-21T04:02:56;101438.22;;;8.35;96.11
43125;BME280;49182;50.788;7.318;2024-02-21T04:07:57;101422.75;;;8.31;96.75
43125;BME280;49182;50.788;7.318;2024-02-21T04:13:00;101423.97;;;8.25;96.45
43125;BME280;49182;50.788;7.318;2024-02-21T04:18:02;101415.53;;;8.20;94.92
43125;BME280;49182;50.788;7.318;2024-02-21T04:23:04;101436.91;;;8.28;95.78
43125;BME280;49182;50.788;7.318;2024-02-21T04:28:07;101435.19;;;8.27;97.47
43125;BME280;49182;50.788;7.318;2024-02-21T04:33:09;101440.38;;;8.29;97.98
43125;BME280;49182;50.788;7.318;2024-02-21T04:38:11;101425.53;;;8.28;97.77
43125;BME280;49182;50.788;7.318;2024-02-21T04:43:14;101424.81;;;8.26;97.89
43125;BME280;49182;50.788;7.318;2024-02-21T04:48:16;101413.63;;;8.22;97.10
43125;BME280;49182;50.788;7.318;2024-02-21T04:53:18;101403.41;;;8.18;96.57
43125;BME280;49182;50.788;7.318;2024-02-21T04:58:21;101389.22;;;8.20;97.49
43125;BME280;49182;50.788;7.318;2024-02-21T05:03:23;101396.06;;;8.23;97.88
43125;BME280;49182;50.788;7.318;2024-02-21T05:08:25;101392.97;;;8.16;95.84
43125;BME280;49182;50.788;7.318;2024-02-21T05:13:28;101384.34;;;8.14;93.41
43125;BME280;49182;50.788;7.318;2024-02-21T05:18:29;101381.06;;;8.10;92.74
43125;BME280;49182;50.788;7.318;2024-02-21T05:23:31;101365.19;;;8.12;92.33
43125;BME280;49182;50.788;7.318;2024-02-21T05:28:35;101379.28;;;8.11;91.90
43125;BME280;49182;50.788;7.318;2024-02-21T05:33:37;101359.53;;;7.91;92.23
43125;BME280;49182;50.788;7.318;2024-02-21T05:38:39;101399.53;;;8.23;91.51
43125;BME280;49182;50.788;7.318;2024-02-21T05:43:42;101400.28;;;8.25;90.80
43125;BME280;49182;50.788;7.318;2024-02-21T05:48:44;101375.44;;;8.29;89.55
43125;BME280;49182;50.788;7.318;2024-02-21T05:53:46;101362.97;;;8.33;89.99
43125;BME280;49182;50.788;7.318;2024-02-21T05:58:49;101365.00;;;8.28;89.44
43125;BME280;49182;50.788;7.318;2024-02-21T06:03:51;101369.66;;;8.24;89.89
43125;BME280;49182;50.788;7.318;2024-02-21T06:08:53;101364.47;;;8.23;89.67
43125;BME280;49182;50.788;7.318;2024-02-21T06:13:56;101363.63;;;8.22;90.14
43125;BME280;49182;50.788;7.318;2024-02-21T06:18:58;101365.72;;;8.17;89.27
43125;BME280;49182;50.788;7.318;2024-02-21T06:24:00;101363.84;;;8.19;90.12
43125;BME280;49182;50.788;7.318;2024-02-21T06:29:03;101351.22;;;8.24;90.21
43125;BME280;49182;50.788;7.318;2024-02-21T06:34:05;101350.78;;;8.18;90.04
43125;BME280;49182;50.788;7.318;2024-02-21T06:39:07;101237.13;;;7.60;90.36
43125;BME280;49182;50.788;7.318;2024-02-21T06:44:10;101340.50;;;8.27;89.87
43125;BME280;49182;50.788;7.318;2024-02-21T06:49:12;101337.50;;;8.33;90.28
43125;BME280;49182;50.788;7.318;2024-02-21T06:54:14;101342.50;;;8.24;89.45
43125;BME280;49182;50.788;7.318;2024-02-21T06:59:18;101333.56;;;8.26;90.57
43125;BME280;49182;50.788;7.318;2024-02-21T07:04:20;101321.09;;;8.16;90.82
43125;BME280;49182;50.788;7.318;2024-02-21T07:09:22;101323.63;;;8.31;91.30
43125;BME280;49182;50.788;7.318;2024-02-21T07:14:25;101319.91;;;8.34;91.61
43125;BME280;49182;50.788;7.318;2024-02-21T07:19:27;101305.13;;;8.19;91.50
43125;BME280;49182;50.788;7.318;2024-02-21T07:24:28;101311.78;;;8.24;91.01
43125;BME280;49182;50.788;7.318;2024-02-21T07:29:31;101305.72;;;8.36;91.32
43125;BME280;49182;50.788;7.318;2024-02-21T07:34:33;101298.88;;;8.34;90.77
43125;BME280;49182;50.788;7.318;2024-02-21T07:39:35;101302.47;;;8.33;90.88
43125;BME280;49182;50.788;7.318;2024-02-21T07:44:38;101295.63;;;8.30;89.99
43125;BME280;49182;50.788;7.318;2024-02-21T07:49:41;101296.94;;;8.23;89.75
43125;BME280;49182;50.788;7.318;2024-02-21T07:54:43;101295.16;;;8.24;90.49
43125;BME280;49182;50.788;7.318;2024-02-21T07:59:46;101300.94;;;8.29;88.82
43125;BME280;49182;50.788;7.318;2024-02-21T08:04:47;101302.00;;;8.26;87.93
43125;BME280;49182;50.788;7.318;2024-02-21T08:09:49;101290.81;;;8.23;87.45
43125;BME280;49182;50.788;7.318;2024-02-21T08:14:52;101283.47;;;8.28;88.16
43125;BME280;49182;50.788;7.318;2024-02-21T08:19:54;101290.03;;;8.35;85.84
43125;BME280;49182;50.788;7.318;2024-02-21T08:24:56;101289.44;;;8.44;84.18
43125;BME280;49182;50.788;7.318;2024-02-21T08:29:59;101281.81;;;8.39;84.16
43125;BME280;49182;50.788;7.318;2024-02-21T08:35:01;101269.66;;;8.51;84.81
43125;BME280;49182;50.788;7.318;2024-02-21T08:40:03;101263.31;;;8.66;83.62
43125;BME280;49182;50.788;7.318;2024-02-21T08:45:08;101209.00;;;8.40;81.49
43125;BME280;49182;50.788;7.318;2024-02-21T08:50:10;101216.34;;;8.60;82.30
43125;BME280;49182;50.788;7.318;2024-02-21T08:55:27;101226.44;;;8.79;81.81
43125;BME280;49182;50.788;7.318;2024-02-21T09:00:30;101201.09;;;8.52;80.29
43125;BME280;49182;50.788;7.318;2024-02-21T09:05:32;101219.63;;;8.76;79.57
43125;BME280;49182;50.788;7.318;2024-02-21T09:10:34;101219.38;;;8.92;80.24
43125;BME280;49182;50.788;7.318;2024-02-21T09:15:37;101210.41;;;8.95;79.18
43125;BME280;49182;50.788;7.318;2024-02-21T09:20:39;101189.81;;;9.12;78.54
43125;BME280;49182;50.788;7.318;2024-02-21T09:25:40;101175.97;;;9.21;78.53
43125;BME280;49182;50.788;7.318;2024-02-21T09:30:44;101166.22;;;9.34;78.83
43125;BME280;49182;50.788;7.318;2024-02-21T09:35:45;101160.91;;;9.58;77.88
43125;BME280;49182;50.788;7.318;2024-02-21T09:40:47;101155.91;;;9.66;76.75
43125;BME280;49182;50.788;7.318;2024-02-21T09:45:55;101150.66;;;9.78;75.33
43125;BME280;49182;50.788;7.318;2024-02-21T09:50:57;101130.69;;;9.86;77.05
43125;BME280;49182;50.788;7.318;2024-02-21T09:56:00;101138.47;;;9.88;74.71
43125;BME280;49182;50.788;7.318;2024-02-21T10:01:03;101126.38;;;10.07;75.23
43125;BME280;49182;50.788;7.318;2024-02-21T10:06:17;101130.53;;;10.23;72.90
43125;BME280;49182;50.788;7.318;2024-02-21T10:11:22;101039.81;;;9.79;73.15
43125;BME280;49182;50.788;7.318;2024-02-21T10:16:25;101099.69;;;10.23;71.99
43125;BME280;49182;50.788;7.318;2024-02-21T10:21:27;101108.31;;;10.47;72.24
43125;BME280;49182;50.788;7.318;2024-02-21T10:26:28;101093.03;;;10.73;70.04
43125;BME280;49182;50.788;7.318;2024-02-21T10:31:31;101086.28;;;10.91;70.84
43125;BME280;49182;50.788;7.318;2024-02-21T10:36:33;101081.34;;;10.87;68.69
43125;BME280;49182;50.788;7.318;2024-02-21T10:41:36;101079.91;;;10.83;68.96
43125;BME280;49182;50.788;7.318;2024-02-21T10:46:41;101093.94;;;10.94;68.62
43125;BME280;49182;50.788;7.318;2024-02-21T10:51:45;101058.13;;;11.02;67.85
43125;BME280;49182;50.788;7.318;2024-02-21T10:56:49;101070.69;;;11.41;67.89
43125;BME280;49182;50.788;7.318;2024-02-21T11:01:52;100984.34;;;11.10;66.71
43125;BME280;49182;50.788;7.318;2024-02-21T11:07:00;101048.75;;;11.50;65.50
43125;BME280;49182;50.788;7.318;2024-02-21T11:12:04;101047.91;;;11.50;66.32
43125;BME280;49182;50.788;7.318;2024-02-21T11:17:16;101047.19;;;11.68;66.13
43125;BME280;49182;50.788;7.318;2024-02-21T11:22:18;101017.78;;;11.62;64.24
43125;BME280;49182;50.788;7.318;2024-02-21T11:27:21;100998.00;;;11.87;65.50
43125;BME280;49182;50.788;7.318;2024-02-21T11:32:26;100970.28;;;11.81;64.55
43125;BME280;49182;50.788;7.318;2024-02-21T11:37:28;100977.78;;;12.16;63.70
43125;BME280;49182;50.788;7.318;2024-02-21T11:42:30;100960.44;;;11.93;63.00
43125;BME280;49182;50.788;7.318;2024-02-21T11:47:34;100925.84;;;12.34;63.09
43125;BME280;49182;50.788;7.318;2024-02-21T11:52:36;100899.34;;;12.53;62.08
43125;BME280;49182;50.788;7.318;2024-02-21T11:57:37;100887.81;;;12.45;60.76
43125;BME280;49182;50.788;7.318;2024-02-21T12:02:41;100871.06;;;12.35;60.56
43125;BME280;49182;50.788;7.318;2024-02-21T12:07:43;100881.22;;;12.10;62.45
43125;BME280;49182;50.788;7.318;2024-02-21T12:12:45;100868.78;;;11.92;63.21
43125;BME280;49182;50.788;7.318;2024-02-21T12:17:48;100858.91;;;11.94;64.59
43125;BME280;49182;50.788;7.318;2024-02-21T12:22:51;100852.06;;;11.91;65.34
43125;BME280;49182;50.788;7.318;2024-02-21T12:27:53;100828.97;;;11.93;64.54
43125;BME280;49182;50.788;7.318;2024-02-21T12:32:56;100818.66;;;12.00;64.60
43125;BME280;49182;50.788;7.318;2024-02-21T12:37:57;100801.97;;;12.09;63.29
43125;BME280;49182;50.788;7.318;2024-02-21T12:42:59;100772.44;;;11.94;64.87
43125;BME280;49182;50.788;7.318;2024-02-21T12:48:03;100665.63;;;11.47;65.14
43125;BME280;49182;50.788;7.318;2024-02-21T12:53:05;100767.97;;;12.14;64.39
43125;BME280;49182;50.788;7.318;2024-02-21T12:58:17;100764.63;;;12.12;64.54
43125;BME280;49182;50.788;7.318;2024-02-21T13:03:21;100737.38;;;12.48;62.36
43125;BME280;49182;50.788;7.318;2024-02-21T13:08:22;100721.81;;;12.36;63.01
43125;BME280;49182;50.788;7.318;2024-02-21T13:13:24;100703.44;;;12.34;62.44
43125;BME280;49182;50.788;7.318;2024-02-21T13:18:27;100680.59;;;12.24;63.00
43125;BME280;49182;50.788;7.318;2024-02-21T13:23:29;100667.78;;;12.19;63.28
43125;BME280;49182;50.788;7.318;2024-02-21T13:28:31;100638.38;;;12.22;62.20
43125;BME280;49182;50.788;7.318;2024-02-21T13:33:34;100605.31;;;11.99;64.17
43125;BME280;49182;50.788;7.318;2024-02-21T13:38:36;100586.63;;;12.00;62.23
43125;BME280;49182;50.788;7.318;2024-02-21T13:43:37;100562.72;;;11.73;64.00
43125;BME280;49182;50.788;7.318;2024-02-21T13:48:41;100549.94;;;11.68;63.41
43125;BME280;49182;50.788;7.318;2024-02-21T13:53:43;100508.38;;;11.51;63.82
43125;BME280;49182;50.788;7.318;2024-02-21T13:58:45;100532.47;;;11.39;64.64
43125;BME280;49182;50.788;7.318;2024-02-21T14:03:48;100549.56;;;11.25;65.42
43125;BME280;49182;50.788;7.318;2024-02-21T14:08:50;100557.22;;;11.18;66.86
43125;BME280;49182;50.788;7.318;2024-02-21T14:13:52;100530.09;;;11.26;66.74
43125;BME280;49182;50.788;7.318;2024-02-21T14:18:55;100510.34;;;11.30;67.40
43125;BME280;49182;50.788;7.318;2024-02-21T14:23:57;100492.44;;;11.14;67.68
43125;BME280;49182;50.788;7.318;2024-02-21T14:28:58;100485.19;;;11.26;67.12
43125;BME280;49182;50.788;7.318;2024-02-21T14:34:02;100470.41;;;11.33;67.19
43125;BME280;49182;50.788;7.318;2024-02-21T14:39:04;100517.75;;;11.17;66.96
43125;BME280;49182;50.788;7.318;2024-02-21T14:44:05;100489.75;;;11.24;67.77
43125;BME280;49182;50.788;7.318;2024-02-21T14:49:09;100495.75;;;11.07;66.62
43125;BME280;49182;50.788;7.318;2024-02-21T14:54:11;100460.59;;;11.16;65.91
43125;BME280;49182;50.788;7.318;2024-02-21T14:59:13;100457.78;;;11.27;63.67
43125;BME280;49182;50.788;7.318;2024-02-21T15:04:31;100449.41;;;11.41;63.54
43125;BME280;49182;50.788;7.318;2024-02-21T15:09:34;100473.47;;;11.38;65.83
43125;BME280;49182;50.788;7.318;2024-02-21T15:14:35;100457.34;;;11.31;64.75
43125;BME280;49182;50.788;7.318;2024-02-21T15:19:38;100432.84;;;11.39;64.07
43125;BME280;49182;50.788;7.318;2024-02-21T15:24:41;100438.66;;;11.43;63.48
43125;BME280;49182;50.788;7.318;2024-02-21T15:29:42;100408.34;;;11.37;63.43
43125;BME280;49182;50.788;7.318;2024-02-21T15:34:45;100352.75;;;11.56;61.88
43125;BME280;49182;50.788;7.318;2024-02-21T15:39:48;100372.28;;;11.46;61.51
43125;BME280;49182;50.788;7.318;2024-02-21T15:44:49;100371.34;;;11.37;62.74
43125;BME280;49182;50.788;7.318;2024-02-21T15:49:53;100283.50;;;10.88;62.74
43125;BME280;49182;50.788;7.318;2024-02-21T15:54:55;100348.59;;;11.26;62.85
43125;BME280;49182;50.788;7.318;2024-02-21T15:59:56;100348.63;;;11.17;63.47
43125;BME280;49182;50.788;7.318;2024-02-21T16:04:59;100351.97;;;11.09;63.53
43125;BME280;49182;50.788;7.318;2024-02-21T16:10:01;100350.31;;;10.99;63.36
43125;BME280;49182;50.788;7.318;2024-02-21T16:15:04;100328.13;;;10.91;64.02
43125;BME280;49182;50.788;7.318;2024-02-21T16:20:08;100312.69;;;10.87;63.86
43125;BME280;49182;50.788;7.318;2024-02-21T16:25:10;100309.56;;;10.74;61.88
43125;BME280;49182;50.788;7.318;2024-02-21T16:30:12;100308.44;;;10.67;62.67
43125;BME280;49182;50.788;7.318;2024-02-21T16:35:15;100295.66;;;10.62;63.24
43125;BME280;49182;50.788;7.318;2024-02-21T16:40:17;100285.84;;;10.54;63.70
43125;BME280;49182;50.788;7.318;2024-02-21T16:45:19;100260.94;;;10.67;63.39
43125;BME280;49182;50.788;7.318;2024-02-21T16:50:22;100243.03;;;10.51;64.90
43125;BME280;49182;50.788;7.318;2024-02-21T16:55:24;100224.59;;;10.41;65.47
43125;BME280;49182;50.788;7.318;2024-02-21T17:00:26;100219.22;;;10.24;63.01
43125;BME280;49182;50.788;7.318;2024-02-21T17:05:29;100257.00;;;10.24;64.48
43125;BME280;49182;50.788;7.318;2024-02-21T17:10:31;100243.22;;;10.30;66.07
43125;BME280;49182;50.788;7.318;2024-02-21T17:15:33;100236.69;;;10.25;66.77
43125;BME280;49182;50.788;7.318;2024-02-21T17:20:36;100229.59;;;10.25;66.59
43125;BME280;49182;50.788;7.318;2024-02-21T17:25:37;100229.50;;;10.17;67.14
43125;BME280;49182;50.788;7.318;2024-02-21T17:30:39;100200.19;;;9.91;66.14
43125;BME280;49182;50.788;7.318;2024-02-21T17:35:42;100226.41;;;10.02;66.26
43125;BME280;49182;50.788;7.318;2024-02-21T17:40:44;100200.19;;;9.91;64.85
43125;BME280;49182;50.788;7.318;2024-02-21T17:45:46;100225.72;;;10.00;65.06
43125;BME280;49182;50.788;7.318;2024-02-21T17:50:49;100202.69;;;10.02;63.95
43125;BME280;49182;50.788;7.318;2024-02-21T17:55:51;100186.28;;;10.08;63.55
43125;BME280;49182;50.788;7.318;2024-02-21T18:00:53;100169.53;;;9.90;64.38
43125;BME280;49182;50.788;7.318;2024-02-21T18:05:58;100130.84;;;9.81;65.08
43125;BME280;49182;50.788;7.318;2024-02-21T18:11:01;100143.47;;;9.87;68.97
43125;BME280;49182;50.788;7.318;2024-02-21T18:16:03;100137.31;;;9.96;70.75
43125;BME280;49182;50.788;7.318;2024-02-21T18:21:06;100122.09;;;9.81;71.89
43125;BME280;49182;50.788;7.318;2024-02-21T18:26:08;100098.78;;;9.57;76.27
43125;BME280;49182;50.788;7.318;2024-02-21T18:31:10;100071.22;;;9.42;76.22
43125;BME280;49182;50.788;7.318;2024-02-21T18:36:13;100077.19;;;9.44;78.25
43125;BME280;49182;50.788;7.318;2024-02-21T18:41:15;100069.69;;;9.39;81.71
43125;BME280;49182;50.788;7.318;2024-02-21T18:46:17;100054.72;;;9.30;83.57
43125;BME280;49182;50.788;7.318;2024-02-21T18:51:20;100059.88;;;9.12;85.82
43125;BME280;49182;50.788;7.318;2024-02-21T18:56:22;100013.56;;;8.81;89.32
43125;BME280;49182;50.788;7.318;2024-02-21T19:01:24;100031.72;;;8.93;90.39
43125;BME280;49182;50.788;7.318;2024-02-21T19:06:27;100023.97;;;8.92;92.68
43125;BME280;49182;50.788;7.318;2024-02-21T19:11:29;100004.28;;;8.86;92.57
43125;BME280;49182;50.788;7.318;2024-02-21T19:16:31;99968.81;;;8.62;93.76
43125;BME280;49182;50.788;7.318;2024-02-21T19:21:34;99994.72;;;8.66;95.34
43125;BME280;49182;50.788;7.318;2024-02-21T19:26:35;99995.13;;;8.62;97.50
43125;BME280;49182;50.788;7.318;2024-02-21T19:31:37;99989.88;;;8.62;98.94
43125;BME280;49182;50.788;7.318;2024-02-21T19:36:41;99979.59;;;8.59;100.00
43125;BME280;49182;50.788;7.318;2024-02-21T19:41:42;99957.72;;;8.58;100.00
43125;BME280;49182;50.788;7.318;2024-02-21T19:46:44;99955.63;;;8.52;100.00
43125;BME280;49182;50.788;7.318;2024-02-21T19:51:49;99938.59;;;8.46;100.00
43125;BME280;49182;50.788;7.318;2024-02-21T19:56:50;99927.97;;;8.38;100.00
43125;BME280;49182;50.788;7.318;2024-02-21T20:01:52;99911.59;;;8.35;100.00
43125;BME280;49182;50.788;7.318;2024-02-21T20:06:55;99892.50;;;8.42;100.00
43125;BME280;49182;50.788;7.318;2024-02-21T20:11:57;99893.84;;;8.27;100.00
43125;BME280;49182;50.788;7.318;2024-02-21T20:16:59;99875.59;;;8.26;100.00
43125;BME280;49182;50.788;7.318;2024-02-21T20:22:03;99865.91;;;8.26;100.00
43125;BME280;49182;50.788;7.318;2024-02-21T20:27:05;99855.94;;;8.30;100.00
43125;BME280;49182;50.788;7.318;2024-02-21T20:32:07;99849.13;;;8.27;100.00
43125;BME280;49182;50.788;7.318;2024-02-21T20:37:10;99845.13;;;8.23;100.00
43125;BME280;49182;50.788;7.318;2024-02-21T20:42:11;99834.06;;;8.20;100.00
43125;BME280;49182;50.788;7.318;2024-02-21T20:47:15;99830.31;;;8.22;100.00
43125;BME280;49182;50.788;7.318;2024-02-21T20:52:19;99822.72;;;8.19;100.00
43125;BME280;49182;50.788;7.318;2024-02-21T20:57:20;99826.06;;;8.31;100.00
43125;BME280;49182;50.788;7.318;2024-02-21T21:02:22;99808.88;;;8.27;100.00
43125;BME280;49182;50.788;7.318;2024-02-21T21:07:26;99810.94;;;8.23;100.00
43125;BME280;49182;50.788;7.318;2024-02-21T21:12:27;99793.25;;;8.25;100.00
43125;BME280;49182;50.788;7.318;2024-02-21T21:17:29;99781.06;;;8.34;100.00
43125;BME280;49182;50.788;7.318;2024-02-21T21:22:33;99675.41;;;7.72;100.00
43125;BME280;49182;50.788;7.318;2024-02-21T21:27:34;99725.03;;;8.14;100.00
43125;BME280;49182;50.788;7.318;2024-02-21T21:32:36;99742.03;;;8.29;100.00
43125;BME280;49182;50.788;7.318;2024-02-21T21:37:39;99752.97;;;8.25;100.00
43125;BME280;49182;50.788;7.318;2024-02-21T21:42:42;99738.69;;;8.27;100.00
43125;BME280;49182;50.788;7.318;2024-02-21T21:47:44;99728.59;;;8.23;100.00
43125;BME280;49182;50.788;7.318;2024-02-21T21:52:47;99719.19;;;8.30;100.00
43125;BME280;49182;50.788;7.318;2024-02-21T21:57:48;99710.19;;;8.23;100.00
43125;BME280;49182;50.788;7.318;2024-02-21T22:02:50;99708.78;;;8.28;100.00
43125;BME280;49182;50.788;7.318;2024-02-21T22:07:53;99705.94;;;8.31;100.00
43125;BME280;49182;50.788;7.318;2024-02-21T22:12:55;99696.47;;;8.29;100.00
43125;BME280;49182;50.788;7.318;2024-02-21T22:17:57;99687.75;;;8.28;100.00
43125;BME280;49182;50.788;7.318;2024-02-21T22:23:00;99683.09;;;8.32;100.00
43125;BME280;49182;50.788;7.318;2024-02-21T22:28:02;99678.66;;;8.32;100.00
43125;BME280;49182;50.788;7.318;2024-02-21T22:33:03;99666.19;;;8.34;100.00
43125;BME280;49182;50.788;7.318;2024-02-21T22:38:07;99654.69;;;8.35;100.00
43125;BME280;49182;50.788;7.318;2024-02-21T22:43:08;99649.28;;;8.37;100.00
43125;BME280;49182;50.788;7.318;2024-02-21T22:48:10;99629.78;;;8.30;100.00
43125;BME280;49182;50.788;7.318;2024-02-21T22:53:13;99622.69;;;8.40;100.00
43125;BME280;49182;50.788;7.318;2024-02-21T22:58:15;99626.22;;;8.31;100.00
43125;BME280;49182;50.788;7.318;2024-02-21T23:03:17;99496.66;;;7.64;100.00
43125;BME280;49182;50.788;7.318;2024-02-21T23:08:20;99603.63;;;8.38;100.00
43125;BME280;49182;50.788;7.318;2024-02-21T23:13:22;99593.94;;;8.38;100.00
43125;BME280;49182;50.788;7.318;2024-02-21T23:18:23;99580.59;;;8.40;100.00
43125;BME280;49182;50.788;7.318;2024-02-21T23:23:26;99564.41;;;8.44;100.00
43125;BME280;49182;50.788;7.318;2024-02-21T23:28:28;99564.31;;;8.36;100.00
43125;BME280;49182;50.788;7.318;2024-02-21T23:33:29;99531.94;;;8.26;100.00
43125;BME280;49182;50.788;7.318;2024-02-21T23:38:34;99547.56;;;8.37;100.00
43125;BME280;49182;50.788;7.318;2024-02-21T23:43:40;99532.44;;;8.39;100.00
43125;BME280;49182;50.788;7.318;2024-02-21T23:48:42;99528.31;;;8.37;100.00
43125;BME280;49182;50.788;7.318;2024-02-21T23:53:45;99518.50;;;8.39;100.00
43125;BME280;49182;50.788;7.318;2024-02-21T23:58:47;99507.75;;;8.50;100.00
